createdAt,value
2019-02-19T00:01:08.754Z,95534.26
2019-02-19T00:03:37.384Z,95536.28
2019-02-19T00:06:06.033Z,95533.03
2019-02-19T00:08:34.584Z,95531.48
2019-02-19T00:11:03.363Z,95534.53
2019-02-19T00:13:31.985Z,95533.84
2019-02-19T00:16:00.615Z,95534.63
2019-02-19T00:18:29.237Z,95529.66
2019-02-19T00:20:57.907Z,95532.41
2019-02-19T00:23:26.460Z,95529.28
2019-02-19T00:25:54.957Z,95530.47
2019-02-19T00:28:23.613Z,95528.38
2019-02-19T00:30:52.282Z,95520.84
2019-02-19T00:33:20.774Z,95521.63
2019-02-19T00:35:49.372Z,95523.73
2019-02-19T00:38:17.996Z,95517.96
2019-02-19T00:40:46.619Z,95518.55
2019-02-19T00:43:15.157Z,95511.62
2019-02-19T00:45:44.800Z,95516.28
2019-02-19T00:48:13.417Z,95511.66
2019-02-19T00:50:42.074Z,95518.64
2019-02-19T00:53:10.558Z,95512.06
2019-02-19T00:55:39.177Z,95511.46
2019-02-19T00:58:08.069Z,95511.68
2019-02-19T01:00:36.623Z,95508.81
2019-02-19T01:03:05.286Z,95508.05
2019-02-19T01:05:34.065Z,95500.81
2019-02-19T01:08:02.631Z,95494.97
2019-02-19T01:10:31.188Z,95503.50
2019-02-19T01:13:00.169Z,95501.63
2019-02-19T01:15:28.873Z,95495.05
2019-02-19T01:17:57.379Z,95491.14
2019-02-19T01:20:25.942Z,95491.38
2019-02-19T01:22:54.603Z,95484.06
2019-02-19T01:25:23.237Z,95487.97
2019-02-19T01:27:51.793Z,95482.94
2019-02-19T01:30:20.363Z,95484.30
2019-02-19T01:32:48.987Z,95481.61
2019-02-19T01:35:17.739Z,95478.70
2019-02-19T01:37:47.296Z,95470.78
2019-02-19T01:40:15.863Z,95464.62
2019-02-19T01:42:44.486Z,95462.84
2019-02-19T01:45:13.124Z,95464.59
2019-02-19T01:47:41.725Z,95462.66
2019-02-19T01:50:10.955Z,95464.23
2019-02-19T01:52:39.573Z,95459.58
2019-02-19T01:55:08.917Z,95456.52
2019-02-19T01:57:37.462Z,95449.58
2019-02-19T02:00:09.093Z,95460.05
2019-02-19T02:02:37.721Z,95456.02
2019-02-19T02:05:06.413Z,95454.84
2019-02-19T02:07:34.993Z,95454.48
2019-02-19T02:10:04.411Z,95449.83
2019-02-19T02:12:33.047Z,95449.23
2019-02-19T02:15:01.620Z,95455.65
2019-02-19T02:17:30.278Z,95449.27
2019-02-19T02:19:58.899Z,95452.77
2019-02-19T02:22:27.396Z,95453.92
2019-02-19T02:24:55.880Z,95453.94
2019-02-19T02:27:24.504Z,95459.19
2019-02-19T02:29:53.165Z,95458.02
2019-02-19T02:32:21.647Z,95461.30
2019-02-19T02:34:50.148Z,95458.42
2019-02-19T02:37:19.045Z,95456.30
2019-02-19T02:39:47.680Z,95458.59
2019-02-19T02:42:32.275Z,95450.63
2019-02-19T02:45:00.921Z,95456.23
2019-02-19T02:47:29.556Z,95445.05
2019-02-19T02:49:58.180Z,95458.02
2019-02-19T02:52:26.700Z,95451.86
2019-02-19T02:54:55.319Z,95454.77
2019-02-19T02:57:23.880Z,95457.82
2019-02-19T02:59:52.427Z,95452.41
2019-02-19T03:02:21.037Z,95463.59
2019-02-19T03:04:49.674Z,95455.27
2019-02-19T03:07:28.476Z,95457.35
2019-02-19T03:09:56.971Z,95460.28
2019-02-19T03:12:25.601Z,95460.53
2019-02-19T03:14:54.429Z,95461.13
2019-02-19T03:17:22.997Z,95456.84
2019-02-19T03:19:51.472Z,95452.96
2019-02-19T03:22:20.168Z,95463.41
2019-02-19T03:24:48.800Z,95459.17
2019-02-19T03:27:17.292Z,95453.02
2019-02-19T03:29:45.810Z,95453.24
2019-02-19T03:32:14.436Z,95454.42
2019-02-19T03:34:42.988Z,95454.07
2019-02-19T03:37:11.864Z,95454.45
2019-02-19T03:39:40.485Z,95455.42
2019-02-19T03:42:09.111Z,95451.19
2019-02-19T03:44:37.655Z,95456.02
2019-02-19T03:47:06.276Z,95449.86
2019-02-19T03:49:34.909Z,95452.95
2019-02-19T03:52:03.518Z,95444.48
2019-02-19T03:54:32.145Z,95454.12
2019-02-19T03:57:01.082Z,95458.55
2019-02-19T03:59:29.761Z,95459.33
2019-02-19T04:01:58.486Z,95447.95
2019-02-19T04:04:27.111Z,95455.08
2019-02-19T04:06:55.794Z,95449.67
2019-02-19T04:09:24.414Z,95458.74
2019-02-19T04:11:52.910Z,95449.85
2019-02-19T04:14:21.582Z,95449.09
2019-02-19T04:16:50.081Z,95453.88
2019-02-19T04:19:18.677Z,95453.70
2019-02-19T04:21:47.346Z,95452.34
2019-02-19T04:24:16.000Z,95458.89
2019-02-19T04:26:44.480Z,95454.66
2019-02-19T04:29:12.958Z,95450.20
2019-02-19T04:31:41.625Z,95451.77
2019-02-19T04:34:10.252Z,95456.77
2019-02-19T04:36:38.809Z,95454.26
2019-02-19T04:39:07.583Z,95455.80
2019-02-19T04:41:36.217Z,95456.59
2019-02-19T04:44:04.854Z,95462.17
2019-02-19T04:46:33.617Z,95466.23
2019-02-19T04:49:02.177Z,95467.99
2019-02-19T04:51:30.801Z,95463.38
2019-02-19T04:53:59.350Z,95466.86
2019-02-19T04:56:27.971Z,95468.00
2019-02-19T04:58:56.600Z,95468.77
2019-02-19T05:01:25.202Z,95459.88
2019-02-19T05:04:01.095Z,95463.38
2019-02-19T05:06:29.920Z,95470.70
2019-02-19T05:08:58.553Z,95472.84
2019-02-19T05:15:10.511Z,95473.03
2019-02-19T05:17:39.212Z,95474.96
2019-02-19T05:20:09.337Z,95472.44
2019-02-19T05:22:37.973Z,95474.77
2019-02-19T05:25:08.033Z,95483.26
2019-02-19T05:27:36.660Z,95475.16
2019-02-19T05:30:10.719Z,95477.45
2019-02-19T05:32:39.234Z,95483.05
2019-02-19T05:35:08.670Z,95480.53
2019-02-19T05:37:37.161Z,95488.43
2019-02-19T05:40:08.046Z,95496.69
2019-02-19T05:42:36.669Z,95495.83
2019-02-19T05:45:08.272Z,95496.70
2019-02-19T05:50:41.458Z,95503.00
2019-02-19T05:53:10.141Z,95513.52
2019-02-19T05:55:38.778Z,95513.44
2019-02-19T05:58:07.282Z,95513.91
2019-02-19T06:00:35.879Z,95517.76
2019-02-19T06:03:04.520Z,95514.81
2019-02-19T06:05:33.158Z,95516.84
2019-02-19T06:08:01.746Z,95516.55
2019-02-19T06:10:30.382Z,95521.78
2019-02-19T06:12:59.014Z,95518.52
2019-02-19T06:15:27.542Z,95519.04
2019-02-19T06:17:56.170Z,95522.55
2019-02-19T06:20:24.802Z,95523.14
2019-02-19T06:22:53.345Z,95527.26
2019-02-19T06:25:21.826Z,95527.27
2019-02-19T06:27:50.554Z,95527.86
2019-02-19T06:30:19.213Z,95526.77
2019-02-19T06:32:47.702Z,95513.64
2019-02-19T06:35:16.342Z,95529.72
2019-02-19T06:37:45.029Z,95524.52
2019-02-19T06:40:25.633Z,95526.53
2019-02-19T06:42:54.299Z,95525.98
2019-02-19T06:45:22.926Z,95522.11
2019-02-19T06:47:51.564Z,95525.78
2019-02-19T06:50:20.248Z,95525.62
2019-02-19T06:52:48.748Z,95526.03
2019-02-19T06:55:17.318Z,95520.70
2019-02-19T06:57:45.976Z,95526.00
2019-02-19T07:00:14.929Z,95522.65
2019-02-19T07:02:50.631Z,95525.52
2019-02-19T07:05:20.784Z,95521.28
2019-02-19T07:07:49.419Z,95520.83
2019-02-19T07:10:18.052Z,95522.53
2019-02-19T07:12:46.555Z,95523.02
2019-02-19T07:15:15.172Z,95515.82
2019-02-19T07:17:43.803Z,95520.70
2019-02-19T07:20:12.454Z,95521.85
2019-02-19T07:22:40.962Z,95523.39
2019-02-19T07:25:12.724Z,95517.75
2019-02-19T07:27:41.399Z,95522.36
2019-02-19T07:30:11.630Z,95517.30
2019-02-19T07:32:40.270Z,95521.09
2019-02-19T07:35:10.104Z,95517.71
2019-02-19T07:37:38.664Z,95516.88
2019-02-19T07:40:09.010Z,95511.73
2019-02-19T07:42:37.645Z,95517.92
2019-02-19T07:45:09.225Z,95522.84
2019-02-19T07:47:37.859Z,95514.19
2019-02-19T07:50:09.085Z,95513.41
2019-02-19T07:52:38.022Z,95508.55
2019-02-19T07:55:10.512Z,95512.58
2019-02-19T07:57:39.109Z,95507.92
2019-02-19T08:00:10.933Z,95513.41
2019-02-19T08:02:39.553Z,95511.98
2019-02-19T08:05:08.429Z,95514.53
2019-02-19T08:07:36.911Z,95513.09
2019-02-19T08:10:08.217Z,95506.66
2019-02-19T08:12:37.025Z,95507.73
2019-02-19T08:15:12.803Z,95506.23
2019-02-19T08:17:41.438Z,95504.25
2019-02-19T08:20:15.698Z,95503.91
2019-02-19T08:22:40.665Z,95499.94
2019-02-19T08:25:09.330Z,95506.05
2019-02-19T08:27:37.959Z,95507.86
2019-02-19T08:30:10.989Z,95500.23
2019-02-19T08:32:39.192Z,95502.91
2019-02-19T08:35:08.160Z,95501.46
2019-02-19T08:37:36.790Z,95509.14
2019-02-19T08:40:07.766Z,95503.72
2019-02-19T08:42:36.267Z,95505.14
2019-02-19T08:45:06.605Z,95496.34
2019-02-19T08:47:42.248Z,95504.08
2019-02-19T08:50:07.711Z,95508.08
2019-02-19T08:52:36.238Z,95507.39
2019-02-19T08:55:05.520Z,95510.36
2019-02-19T08:57:34.021Z,95509.94
2019-02-19T09:00:02.590Z,95500.70
2019-02-19T09:02:31.267Z,95505.78
2019-02-19T09:04:59.895Z,95498.42
2019-02-19T09:07:28.387Z,95506.59
2019-02-19T09:09:56.928Z,95496.13
2019-02-19T09:12:25.560Z,95495.46
2019-02-19T09:14:54.191Z,95502.06
2019-02-19T09:17:22.708Z,95493.06
2019-02-19T09:19:51.208Z,95496.16
2019-02-19T09:22:19.837Z,95496.10
2019-02-19T09:24:48.657Z,95489.67
2019-02-19T09:27:17.213Z,95484.31
2019-02-19T09:29:47.560Z,95491.02
2019-02-19T09:32:16.067Z,95482.80
2019-02-19T09:34:44.637Z,95485.12
2019-02-19T09:37:13.273Z,95482.30
2019-02-19T09:39:41.948Z,95486.80
2019-02-19T09:42:10.469Z,95483.46
2019-02-19T09:44:38.925Z,95478.16
2019-02-19T09:47:07.630Z,95470.81
2019-02-19T09:49:36.310Z,95475.02
2019-02-19T09:52:04.965Z,95471.83
2019-02-19T09:54:33.551Z,95461.34
2019-02-19T09:57:02.194Z,95462.19
2019-02-19T09:59:30.808Z,95456.88
2019-02-19T10:01:59.687Z,95456.27
2019-02-19T10:04:28.240Z,95450.80
2019-02-19T10:06:56.882Z,95450.20
2019-02-19T10:09:25.527Z,95442.89
2019-02-19T10:11:54.022Z,95439.38
2019-02-19T10:14:22.705Z,95434.52
2019-02-19T10:16:51.181Z,95424.91
2019-02-19T10:19:19.670Z,95424.77
2019-02-19T10:21:48.346Z,95414.72
2019-02-19T10:24:16.986Z,95414.58
2019-02-19T10:26:45.529Z,95412.13
2019-02-19T10:29:14.031Z,95405.41
2019-02-19T10:31:42.666Z,95405.13
2019-02-19T10:34:11.344Z,95405.44
2019-02-19T10:36:39.837Z,95394.30
2019-02-19T10:39:10.914Z,95397.95
2019-02-19T10:41:39.573Z,95387.88
2019-02-19T10:44:08.201Z,95382.08
2019-02-19T10:46:36.876Z,95377.64
2019-02-19T10:49:12.588Z,95371.85
2019-02-19T10:51:41.462Z,95370.77
2019-02-19T10:54:10.048Z,95365.10
2019-02-19T10:56:38.670Z,95364.61
2019-02-19T10:59:07.390Z,95351.17
2019-02-19T11:01:36.060Z,95356.63
2019-02-19T11:04:04.680Z,95351.86
2019-02-19T11:06:33.563Z,95351.59
2019-02-19T11:09:02.271Z,95345.70
2019-02-19T11:11:30.836Z,95339.23
2019-02-19T11:13:59.355Z,95335.20
2019-02-19T11:16:27.985Z,95326.30
2019-02-19T11:18:56.627Z,95326.55
2019-02-19T11:21:25.145Z,95317.98
2019-02-19T11:23:53.648Z,95322.11
2019-02-19T11:26:22.284Z,95315.72
2019-02-19T11:28:50.967Z,95308.75
2019-02-19T11:31:19.532Z,95312.25
2019-02-19T11:33:48.241Z,95299.71
2019-02-19T11:36:16.844Z,95304.89
2019-02-19T11:38:45.400Z,95299.20
2019-02-19T11:41:14.025Z,95300.30
2019-02-19T11:43:42.685Z,95291.19
2019-02-19T11:46:11.255Z,95287.67
2019-02-19T11:48:39.749Z,95282.30
2019-02-19T11:51:08.466Z,95280.67
2019-02-19T11:53:37.101Z,95268.70
2019-02-19T11:56:05.735Z,95266.31
2019-02-19T11:58:34.343Z,95267.35
2019-02-19T12:01:03.041Z,95264.17
2019-02-19T12:03:31.676Z,95252.16
2019-02-19T12:06:00.282Z,95260.66
2019-02-19T12:08:28.766Z,95253.77
2019-02-19T12:10:57.387Z,95253.07
2019-02-19T12:13:26.021Z,95251.89
2019-02-19T12:15:54.675Z,95253.19
2019-02-19T12:18:23.366Z,95247.02
2019-02-19T12:20:51.997Z,95243.05
2019-02-19T12:23:20.622Z,95240.89
2019-02-19T12:25:49.272Z,95235.38
2019-02-19T12:28:17.747Z,95231.20
2019-02-19T12:30:46.459Z,95227.95
2019-02-19T12:33:15.309Z,95226.38
2019-02-19T12:35:43.800Z,95216.06
2019-02-19T12:38:12.378Z,95212.78
2019-02-19T12:40:41.020Z,95207.13
2019-02-19T12:43:09.701Z,95209.35
2019-02-19T12:45:38.311Z,95205.45
2019-02-19T12:48:07.035Z,95195.65
2019-02-19T12:50:35.615Z,95193.34
2019-02-19T12:53:04.234Z,95196.92
2019-02-19T12:55:32.902Z,95196.88
2019-02-19T12:58:01.530Z,95194.02
2019-02-19T13:00:30.016Z,95192.08
2019-02-19T13:02:58.554Z,95184.16
2019-02-19T13:05:27.193Z,95179.40
2019-02-19T13:07:55.830Z,95181.63
2019-02-19T13:10:24.349Z,95180.66
2019-02-19T13:12:52.918Z,95177.19
2019-02-19T13:15:22.447Z,95180.41
2019-02-19T13:17:51.277Z,95177.31
2019-02-19T13:20:19.856Z,95177.80
2019-02-19T13:22:48.337Z,95171.56
2019-02-19T13:25:17.176Z,95167.29
2019-02-19T13:27:45.801Z,95172.53
2019-02-19T13:30:16.878Z,95169.52
2019-02-19T13:32:45.538Z,95167.28
2019-02-19T13:35:14.368Z,95165.08
2019-02-19T13:37:43.014Z,95168.96
2019-02-19T13:40:16.553Z,95164.79
2019-02-19T13:42:45.176Z,95158.92
2019-02-19T13:45:15.202Z,95161.98
2019-02-19T13:47:43.864Z,95156.38
2019-02-19T13:50:18.117Z,95159.64
2019-02-19T13:52:51.510Z,95161.91
2019-02-19T13:55:21.701Z,95156.03
2019-02-19T13:57:50.398Z,95158.10
2019-02-19T14:00:20.644Z,95162.31
2019-02-19T14:02:49.320Z,95158.98
2019-02-19T14:05:17.878Z,95163.41
2019-02-19T14:07:46.358Z,95157.88
2019-02-19T14:10:15.046Z,95154.17
2019-02-19T14:12:43.675Z,95152.17
2019-02-19T14:15:20.101Z,95142.91
2019-02-19T14:17:48.720Z,95146.00
2019-02-19T14:20:21.575Z,95145.59
2019-02-19T14:22:54.464Z,95149.07
2019-02-19T14:25:33.545Z,95145.34
2019-02-19T14:28:15.881Z,95145.45
2019-02-19T14:30:58.291Z,95142.22
2019-02-19T14:33:48.651Z,95141.45
2019-02-19T14:36:12.410Z,95141.31
2019-02-19T14:38:48.712Z,95136.69
2019-02-19T14:41:18.915Z,95140.35
2019-02-19T14:44:05.614Z,95133.52
2019-02-19T14:46:48.090Z,95129.64
2019-02-19T14:49:37.504Z,95123.71
2019-02-19T14:52:09.371Z,95121.92
2019-02-19T14:54:39.690Z,95125.26
2019-02-19T14:57:18.380Z,95124.97
2019-02-19T14:59:57.840Z,95125.44
2019-02-19T15:02:37.393Z,95125.66
2019-02-19T15:05:14.695Z,95127.53
2019-02-19T15:08:01.521Z,95123.72
2019-02-19T15:10:48.282Z,95121.11
2019-02-19T15:13:21.577Z,95128.92
2019-02-19T15:16:00.751Z,95120.81
2019-02-19T15:18:46.219Z,95119.36
2019-02-19T15:21:25.664Z,95121.35
2019-02-19T15:23:59.021Z,95121.51
2019-02-19T15:26:47.584Z,95123.83
2019-02-19T15:29:26.708Z,95117.97
2019-02-19T15:32:13.223Z,95120.55
2019-02-19T15:34:43.490Z,95116.41
2019-02-19T15:37:25.745Z,95108.25
2019-02-19T15:40:12.189Z,95115.97
2019-02-19T15:42:48.491Z,95113.69
2019-02-19T15:45:21.389Z,95111.08
2019-02-19T15:48:07.847Z,95113.48
2019-02-19T15:50:56.454Z,95111.95
2019-02-19T15:53:42.028Z,95111.34
2019-02-19T15:56:17.596Z,95114.78
2019-02-19T15:58:59.317Z,95109.50
2019-02-19T16:01:44.494Z,95112.72
2019-02-19T16:04:15.001Z,95119.18
2019-02-19T16:06:45.133Z,95114.00
2019-02-19T16:09:31.540Z,95110.64
2019-02-19T16:12:07.728Z,95106.85
2019-02-19T16:14:44.011Z,95111.83
2019-02-19T16:17:23.113Z,95122.64
2019-02-19T16:20:02.676Z,95118.33
2019-02-19T16:22:32.887Z,95117.02
2019-02-19T16:25:17.865Z,95128.37
2019-02-19T16:27:57.167Z,95124.13
2019-02-19T16:30:30.145Z,95115.02
2019-02-19T16:33:09.214Z,95123.72
2019-02-19T16:35:39.442Z,95124.63
2019-02-19T16:38:09.781Z,95126.33
2019-02-19T16:40:40.045Z,95125.16
2019-02-19T16:43:16.204Z,95128.23
2019-02-19T16:45:46.320Z,95129.94
2019-02-19T16:48:35.190Z,95127.64
2019-02-19T16:51:16.390Z,95126.88
2019-02-19T16:53:46.614Z,95128.13
2019-02-19T16:56:22.730Z,95127.81
2019-02-19T16:58:53.185Z,95127.49
2019-02-19T17:01:26.100Z,95127.80
2019-02-19T17:04:08.524Z,95129.02
2019-02-19T17:06:47.730Z,95130.56
2019-02-19T17:09:18.049Z,95128.91
2019-02-19T17:11:57.334Z,95132.27
2019-02-19T17:14:33.749Z,95131.98
2019-02-19T17:17:04.006Z,95132.28
2019-02-19T17:19:50.646Z,95130.02
2019-02-19T17:22:23.254Z,95132.16
2019-02-19T17:25:09.995Z,95124.91
2019-02-19T17:27:49.058Z,95125.83
2019-02-19T17:30:28.181Z,95127.05
2019-02-19T17:33:01.356Z,95126.62
2019-02-19T17:35:37.552Z,95140.52
2019-02-19T17:38:16.856Z,95139.19
2019-02-19T17:40:55.969Z,95144.83
2019-02-19T17:43:26.092Z,95148.81
2019-02-19T17:45:59.316Z,95142.72
2019-02-19T17:48:35.427Z,95141.66
2019-02-19T17:51:14.938Z,95138.60
2019-02-19T17:53:45.176Z,95136.77
2019-02-19T17:56:24.639Z,95141.64
2019-02-19T17:58:57.976Z,95145.47
2019-02-19T18:01:40.264Z,95153.39
2019-02-19T18:04:25.812Z,95142.67
2019-02-19T18:06:56.100Z,95149.20
2019-02-19T18:09:26.361Z,95144.02
2019-02-19T18:11:59.519Z,95150.23
2019-02-19T18:14:46.239Z,95148.09
2019-02-19T18:17:31.502Z,95151.15
2019-02-19T18:20:00.290Z,95149.42
2019-02-19T18:22:28.717Z,95147.45
2019-02-19T18:24:57.381Z,95150.19
2019-02-19T18:27:25.937Z,95156.23
2019-02-19T18:29:54.503Z,95155.41
2019-02-19T18:32:23.216Z,95151.59
2019-02-19T18:34:51.832Z,95153.84
2019-02-19T18:37:20.368Z,95155.88
2019-02-19T18:39:48.946Z,95153.91
2019-02-19T18:42:17.578Z,95154.52
2019-02-19T18:44:46.209Z,95159.07
2019-02-19T18:47:14.700Z,95151.55
2019-02-19T18:49:43.302Z,95141.47
2019-02-19T18:52:11.966Z,95153.89
2019-02-19T18:54:49.880Z,95150.69
2019-02-19T18:57:18.384Z,95154.16
2019-02-19T18:59:46.941Z,95151.53
2019-02-19T19:02:15.570Z,95158.11
2019-02-19T19:04:44.052Z,95155.90
2019-02-19T19:07:12.726Z,95145.14
2019-02-19T19:09:41.352Z,95160.23
2019-02-19T19:12:09.913Z,95158.73
2019-02-19T19:14:38.462Z,95168.56
2019-02-19T19:17:07.126Z,95172.26
2019-02-19T19:19:35.758Z,95175.41
2019-02-19T19:22:04.307Z,95169.95
2019-02-19T19:24:32.963Z,95172.67
2019-02-19T19:27:01.594Z,95173.53
2019-02-19T19:29:31.271Z,95178.82
2019-02-19T19:32:00.037Z,95177.89
2019-02-19T19:34:28.516Z,95172.49
2019-02-19T19:36:57.147Z,95179.73
2019-02-19T19:39:25.814Z,95178.84
2019-02-19T19:41:54.308Z,95180.34
2019-02-19T19:44:24.906Z,95192.09
2019-02-19T19:46:53.179Z,95190.31
2019-02-19T19:49:21.747Z,95189.25
2019-02-19T19:51:50.387Z,95188.48
2019-02-19T19:54:19.057Z,95193.55
2019-02-19T19:56:47.613Z,95195.59
2019-02-19T19:59:16.166Z,95194.00
2019-02-19T20:01:44.839Z,95195.28
2019-02-19T20:04:13.457Z,95200.94
2019-02-19T20:06:41.968Z,95204.50
2019-02-19T20:09:10.659Z,95202.85
2019-02-19T20:11:39.290Z,95199.43
2019-02-19T20:14:07.921Z,95206.20
2019-02-19T20:16:36.613Z,95203.34
2019-02-19T20:19:05.299Z,95201.70
2019-02-19T20:21:33.913Z,95207.94
2019-02-19T20:24:02.430Z,95208.53
2019-02-19T20:26:31.049Z,95209.66
2019-02-19T20:28:59.675Z,95210.25
2019-02-19T20:31:28.269Z,95209.80
2019-02-19T20:33:56.755Z,95212.63
2019-02-19T20:36:25.390Z,95207.80
2019-02-19T20:38:54.043Z,95207.75
2019-02-19T20:41:22.606Z,95201.30
2019-02-19T20:43:51.178Z,95205.52
2019-02-19T20:46:19.842Z,95206.03
2019-02-19T20:48:48.479Z,95206.22
2019-02-19T20:51:17.056Z,95202.64
2019-02-19T20:53:45.589Z,95205.22
2019-02-19T20:56:14.217Z,95201.14
2019-02-19T20:58:42.853Z,95201.65
2019-02-19T21:01:11.386Z,95198.52
2019-02-19T21:03:40.024Z,95199.03
2019-02-19T21:06:10.312Z,95200.25
2019-02-19T21:08:39.274Z,95204.17
2019-02-19T21:11:07.946Z,95198.61
2019-02-19T21:13:36.569Z,95190.28
2019-02-19T21:16:05.447Z,95198.78
2019-02-19T21:18:33.942Z,95199.55
2019-02-19T21:21:02.733Z,95199.63
2019-02-19T21:23:31.724Z,95199.78
2019-02-19T21:26:00.299Z,95195.97
2019-02-19T21:28:28.869Z,95199.61
2019-02-19T21:30:57.557Z,95196.38
2019-02-19T21:33:26.196Z,95196.64
2019-02-19T21:35:57.823Z,95198.41
2019-02-19T21:38:25.023Z,95200.42
2019-02-19T21:40:53.670Z,95201.88
2019-02-19T21:43:22.160Z,95204.10
2019-02-19T21:45:50.838Z,95196.53
2019-02-19T21:48:19.474Z,95196.84
2019-02-19T21:50:47.982Z,95199.64
2019-02-19T21:53:16.534Z,95203.73
2019-02-19T21:55:45.174Z,95204.56
2019-02-19T21:58:13.809Z,95206.08
2019-02-19T22:00:42.418Z,95203.34
2019-02-19T22:03:10.904Z,95205.55
2019-02-19T22:05:39.541Z,95203.67
2019-02-19T22:08:08.215Z,95204.70
2019-02-19T22:10:36.697Z,95201.59
2019-02-19T22:13:05.258Z,95201.84
2019-02-19T22:15:33.943Z,95204.89
2019-02-19T22:18:02.583Z,95206.87
2019-02-19T22:20:35.901Z,95205.05
2019-02-19T22:23:04.649Z,95208.27
2019-02-19T22:25:33.293Z,95209.52
2019-02-19T22:28:01.933Z,95199.23
2019-02-19T22:30:30.807Z,95203.65
2019-02-19T22:33:05.408Z,95194.80
2019-02-19T22:35:33.977Z,95205.58
2019-02-19T22:38:02.712Z,95199.86
2019-02-19T22:40:31.345Z,95190.01
2019-02-19T22:42:59.974Z,95202.75
2019-02-19T22:45:28.501Z,95205.02
2019-02-19T22:47:56.989Z,95205.11
2019-02-19T22:50:25.619Z,95204.32
2019-02-19T22:52:54.271Z,95210.05
2019-02-19T22:55:33.448Z,95206.70
2019-02-19T22:58:02.127Z,95210.89
2019-02-19T23:00:47.232Z,95209.01
2019-02-19T23:03:17.728Z,95203.98
2019-02-19T23:05:46.355Z,95210.30
2019-02-19T23:08:14.924Z,95208.76
2019-02-19T23:10:43.578Z,95207.58
2019-02-19T23:13:12.200Z,95207.47
2019-02-19T23:15:40.768Z,95212.55
2019-02-19T23:18:09.299Z,95207.04
2019-02-19T23:20:37.921Z,95213.50
2019-02-19T23:23:06.573Z,95217.00
2019-02-19T23:28:39.330Z,95216.09
2019-02-19T23:31:07.882Z,95209.16
2019-02-19T23:33:36.507Z,95211.94
2019-02-19T23:36:18.819Z,95218.17
2019-02-19T23:38:47.312Z,95219.59
2019-02-19T23:41:15.810Z,95214.28
2019-02-19T23:43:44.483Z,95217.48
2019-02-19T23:46:12.968Z,95207.73
2019-02-19T23:48:41.612Z,95220.99
2019-02-19T23:51:10.265Z,95223.77
2019-02-19T23:53:38.919Z,95221.77
2019-02-19T23:56:07.443Z,95218.19
2019-02-19T23:58:36.112Z,95224.73
